Sunfield, Michigan
Current Conditions -  °F | °C
As of 9:14 AM on Saturday 22 Nov 2014 (Local Time) from KY70 Reporting Station
Light Rain Light Rain  
Wind Chill: 28°   Ceiling: 700
Heat Index: 35°   Visibility: 3mi
Dew Point: 34°   Wind: 10mph
Humidity: 95%   Direction: 230°SW
Pressure: 30.02"   Gusts: 17mph
Location:  42.76°N, 84.99°W
Report Text: KY70 221414Z AUTO 23009G15KT 3SM -RA OVC007 02/01 A3002 RMK AO2 T00190012
Loading
Personal Weather Stations






























Interactive Weather Map New forecast layout! Learn more

10-Day Weather Forecast

Advertisements
Track Severe Weather on mobile